Aviation Digital Data Service (ADDS)

Output produced by TAFs form (2115 UTC 27 May 2017)
found at http://aviationweather.gov/adds/tafs/
 
KROW 271722Z 2718/2818 24010KT P6SM SKC 
     FM271900 24014G24KT P6SM SKC 
     FM280200 26008KT P6SM SKC 
     FM280500 30011KT P6SM SKC 
     FM280700 36023G33KT P6SM SCT030 
     FM281100 01013G23KT P6SM SCT030